EDW3A KLAS-LSZH
Flight info
| Callsign | EDW3A |
|---|---|
| Flight time | N/A |
| Altitude | 33000 |
| Route | GIDGT3 TUKRR DCT DVC DCT FQF J10 LBF DCT FOD DCT DLL/N0480F350 DCT TVC DCT YVO DCT MT DCT BROME DCT DORYY/M082F380 NATT KESIX/N0470F390 DCT REVNU DCT CON DCT LIPGO DCT NUCHU DCT BOGNA UL612 VEULE/N0476F350 DCT TEPRI UN491 POGZI DCT GELTA DCT MANAG DCT PEVIT DCT BLM |
| Aircraft | A343/H-SDE2E3FGHIJ4J5M1RWXY/LB1D1 |
Departure
| Time | N/A |
|---|---|
| Airport | Harry Reid International Airport (KLAS) |
Arrival
| Time | 2026-05-01 10:28 |
|---|---|
| Airport | Zürich Airport (LSZH) |
| Time | Latitude | Longitude | Altitude | Speed | Heading |
|---|---|---|---|---|---|
| 2026-05-01 07:23 | 58.58345 | -24.79119 | 35160 ft | 543 kts | 99° |
| 2026-05-01 07:24 | 58.56189 | -24.58019 | 35156 ft | 543 kts | 99° |
| 2026-05-01 07:24 | 58.54720 | -24.43846 | 35163 ft | 542 kts | 100° |
| 2026-05-01 07:25 | 58.53241 | -24.29747 | 35246 ft | 541 kts | 100° |
| 2026-05-01 07:25 | 58.52496 | -24.22699 | 35375 ft | 540 kts | 100° |
| 2026-05-01 07:25 | 58.51747 | -24.15657 | 35527 ft | 540 kts | 100° |
| 2026-05-01 07:25 | 58.50996 | -24.08628 | 35700 ft | 539 kts | 101° |
| 2026-05-01 07:26 | 58.50241 | -24.01613 | 35898 ft | 538 kts | 101° |
| 2026-05-01 07:26 | 58.49485 | -23.94618 | 36070 ft | 537 kts | 101° |
| 2026-05-01 07:26 | 58.48725 | -23.87619 | 36148 ft | 538 kts | 101° |
| 2026-05-01 07:27 | 58.47192 | -23.73633 | 36150 ft | 537 kts | 101° |
| 2026-05-01 07:27 | 58.45650 | -23.59715 | 36152 ft | 535 kts | 101° |
| 2026-05-01 07:28 | 58.44103 | -23.45888 | 36155 ft | 534 kts | 101° |
| 2026-05-01 07:28 | 58.42537 | -23.32049 | 36153 ft | 533 kts | 101° |
| 2026-05-01 07:29 | 58.40957 | -23.18222 | 36147 ft | 533 kts | 102° |
| 2026-05-01 07:29 | 58.39363 | -23.04414 | 36155 ft | 533 kts | 102° |
| 2026-05-01 07:30 | 58.37752 | -22.90610 | 36155 ft | 533 kts | 102° |
| 2026-05-01 07:30 | 58.36130 | -22.76847 | 36154 ft | 532 kts | 102° |
| 2026-05-01 07:31 | 58.34498 | -22.63134 | 36150 ft | 531 kts | 102° |
| 2026-05-01 07:32 | 58.30354 | -22.28903 | 36149 ft | 531 kts | 102° |
| 2026-05-01 07:33 | 58.27824 | -22.08411 | 36150 ft | 530 kts | 103° |
| 2026-05-01 07:33 | 58.25270 | -21.88017 | 36151 ft | 529 kts | 103° |
| 2026-05-01 07:34 | 58.22687 | -21.67669 | 36151 ft | 529 kts | 103° |
| 2026-05-01 07:35 | 58.20946 | -21.54118 | 36153 ft | 529 kts | 103° |
| 2026-05-01 07:35 | 58.19192 | -21.40590 | 36156 ft | 528 kts | 103° |
| 2026-05-01 07:36 | 58.17428 | -21.27109 | 36152 ft | 526 kts | 103° |
| 2026-05-01 07:36 | 58.15653 | -21.13668 | 36154 ft | 526 kts | 103° |
| 2026-05-01 07:37 | 58.12979 | -20.93639 | 36151 ft | 525 kts | 103° |
| 2026-05-01 07:37 | 58.11172 | -20.80252 | 36153 ft | 525 kts | 104° |
| 2026-05-01 07:38 | 58.09354 | -20.66897 | 36164 ft | 524 kts | 104° |
| 2026-05-01 07:39 | 58.06606 | -20.46933 | 36152 ft | 522 kts | 104° |
| 2026-05-01 07:39 | 58.03833 | -20.27040 | 36158 ft | 522 kts | 104° |
| 2026-05-01 07:40 | 58.01967 | -20.13800 | 36157 ft | 522 kts | 104° |
| 2026-05-01 07:40 | 58.00088 | -20.00573 | 36161 ft | 522 kts | 104° |
| 2026-05-01 07:41 | 57.97992 | -19.87509 | 36146 ft | 520 kts | 109° |
| 2026-05-01 07:42 | 57.94439 | -19.68243 | 36165 ft | 518 kts | 109° |
| 2026-05-01 07:42 | 57.92098 | -19.55419 | 36164 ft | 518 kts | 109° |
| 2026-05-01 07:43 | 57.89780 | -19.42587 | 36147 ft | 518 kts | 109° |
| 2026-05-01 07:43 | 57.86295 | -19.23369 | 36152 ft | 518 kts | 109° |
| 2026-05-01 07:44 | 57.81607 | -18.97861 | 36159 ft | 516 kts | 109° |
| 2026-05-01 07:45 | 57.79250 | -18.85167 | 36160 ft | 515 kts | 109° |
| 2026-05-01 07:45 | 57.76878 | -18.72479 | 36160 ft | 515 kts | 109° |
| 2026-05-01 07:46 | 57.74495 | -18.59820 | 36164 ft | 516 kts | 109° |
| 2026-05-01 07:47 | 57.70915 | -18.40949 | 36159 ft | 514 kts | 110° |
| 2026-05-01 07:47 | 57.68900 | -18.30410 | 36152 ft | 513 kts | 110° |
| 2026-05-01 07:48 | 57.65287 | -18.11657 | 36165 ft | 511 kts | 110° |
| 2026-05-01 07:48 | 57.62865 | -17.99187 | 36165 ft | 511 kts | 110° |
| 2026-05-01 07:49 | 57.59225 | -17.80593 | 36162 ft | 511 kts | 110° |
| 2026-05-01 07:50 | 57.56772 | -17.68161 | 36168 ft | 510 kts | 110° |
| 2026-05-01 07:50 | 57.53085 | -17.49623 | 36165 ft | 508 kts | 110° |
| 2026-05-01 07:51 | 57.50615 | -17.37296 | 36164 ft | 508 kts | 111° |
| 2026-05-01 07:52 | 57.46888 | -17.18844 | 36169 ft | 508 kts | 111° |
| 2026-05-01 07:52 | 57.44389 | -17.06569 | 36167 ft | 508 kts | 111° |
| 2026-05-01 07:53 | 57.40621 | -16.88195 | 36173 ft | 506 kts | 111° |
| 2026-05-01 07:53 | 57.38104 | -16.76017 | 36173 ft | 505 kts | 111° |
| 2026-05-01 07:55 | 57.31782 | -16.45750 | 36176 ft | 503 kts | 111° |
| 2026-05-01 07:56 | 57.25405 | -16.15663 | 36176 ft | 502 kts | 112° |
| 2026-05-01 07:57 | 57.21554 | -15.97711 | 36177 ft | 502 kts | 112° |
| 2026-05-01 07:58 | 57.16402 | -15.73933 | 36173 ft | 500 kts | 111° |
| 2026-05-01 07:59 | 57.11204 | -15.50209 | 36177 ft | 499 kts | 112° |
| 2026-05-01 08:00 | 57.03354 | -15.14896 | 36180 ft | 497 kts | 112° |
| 2026-05-01 08:01 | 57.00004 | -14.96961 | 36180 ft | 494 kts | 98° |
| 2026-05-01 08:01 | 56.99559 | -14.90725 | 36178 ft | 493 kts | 96° |
| 2026-05-01 08:02 | 56.98633 | -14.71967 | 36176 ft | 491 kts | 95° |
| 2026-05-01 08:03 | 56.97766 | -14.53247 | 36173 ft | 491 kts | 96° |
| 2026-05-01 08:03 | 56.96829 | -14.34542 | 36175 ft | 491 kts | 96° |
| 2026-05-01 08:04 | 56.95339 | -14.09716 | 36177 ft | 488 kts | 104° |
| 2026-05-01 08:05 | 56.92882 | -13.98270 | 36176 ft | 482 kts | 123° |
| 2026-05-01 08:05 | 56.90924 | -13.93313 | 36171 ft | 480 kts | 133° |
| 2026-05-01 08:06 | 56.83763 | -13.80591 | 36169 ft | 477 kts | 139° |
| 2026-05-01 08:07 | 56.73981 | -13.64347 | 36165 ft | 475 kts | 138° |
| 2026-05-01 08:08 | 56.66723 | -13.52186 | 36160 ft | 475 kts | 138° |
| 2026-05-01 08:09 | 56.57042 | -13.36031 | 36157 ft | 470 kts | 139° |
| 2026-05-01 08:09 | 56.52222 | -13.28039 | 36146 ft | 469 kts | 139° |
| 2026-05-01 08:10 | 56.42567 | -13.12116 | 36146 ft | 469 kts | 139° |
| 2026-05-01 08:11 | 56.32904 | -12.96294 | 36139 ft | 468 kts | 139° |
| 2026-05-01 08:12 | 56.25652 | -12.84494 | 36130 ft | 468 kts | 139° |
| 2026-05-01 08:13 | 56.18389 | -12.72737 | 36132 ft | 468 kts | 140° |
| 2026-05-01 08:13 | 56.11141 | -12.61067 | 36106 ft | 466 kts | 140° |
| 2026-05-01 08:14 | 56.06350 | -12.53383 | 36115 ft | 461 kts | 141° |
| 2026-05-01 08:14 | 56.01571 | -12.45751 | 36117 ft | 460 kts | 141° |
| 2026-05-01 08:15 | 55.94448 | -12.34423 | 36119 ft | 459 kts | 141° |
| 2026-05-01 08:16 | 55.89713 | -12.26924 | 36103 ft | 458 kts | 141° |
| 2026-05-01 08:16 | 55.84952 | -12.19409 | 36102 ft | 457 kts | 141° |
| 2026-05-01 08:17 | 55.80184 | -12.11910 | 36099 ft | 457 kts | 141° |
| 2026-05-01 08:17 | 55.75414 | -12.04432 | 36100 ft | 457 kts | 141° |
| 2026-05-01 08:18 | 55.70638 | -11.96970 | 36095 ft | 457 kts | 141° |
| 2026-05-01 08:19 | 55.61101 | -11.82145 | 36092 ft | 456 kts | 141° |
| 2026-05-01 08:19 | 55.56331 | -11.74767 | 36091 ft | 456 kts | 141° |
| 2026-05-01 08:20 | 55.51553 | -11.67403 | 36086 ft | 456 kts | 141° |
| 2026-05-01 08:20 | 55.46773 | -11.60059 | 36083 ft | 456 kts | 141° |
| 2026-05-01 08:21 | 55.41988 | -11.52733 | 36081 ft | 456 kts | 141° |
| 2026-05-01 08:21 | 55.37201 | -11.45428 | 36081 ft | 456 kts | 141° |
| 2026-05-01 08:22 | 55.32441 | -11.38187 | 36076 ft | 456 kts | 141° |
| 2026-05-01 08:22 | 55.27643 | -11.30913 | 36075 ft | 456 kts | 141° |
| 2026-05-01 08:23 | 55.22842 | -11.23659 | 36071 ft | 455 kts | 141° |
| 2026-05-01 08:23 | 55.18045 | -11.16435 | 36067 ft | 455 kts | 141° |
| 2026-05-01 08:24 | 55.13245 | -11.09230 | 36073 ft | 455 kts | 141° |
| 2026-05-01 08:24 | 55.08443 | -11.02047 | 36065 ft | 455 kts | 142° |
| 2026-05-01 08:25 | 55.03647 | -10.94894 | 36064 ft | 453 kts | 142° |
| 2026-05-01 08:25 | 54.98867 | -10.87788 | 36064 ft | 451 kts | 142° |
| 2026-05-01 08:26 | 54.94092 | -10.80715 | 36064 ft | 450 kts | 142° |
| 2026-05-01 08:26 | 54.89320 | -10.73669 | 36058 ft | 450 kts | 142° |
| 2026-05-01 08:27 | 54.84539 | -10.66631 | 36062 ft | 450 kts | 142° |
| 2026-05-01 08:27 | 54.79790 | -10.59663 | 36065 ft | 450 kts | 142° |
| 2026-05-01 08:28 | 54.75007 | -10.52667 | 36059 ft | 450 kts | 142° |
| 2026-05-01 08:28 | 54.70222 | -10.45690 | 36059 ft | 450 kts | 142° |
| 2026-05-01 08:29 | 54.65416 | -10.38706 | 36058 ft | 450 kts | 142° |
| 2026-05-01 08:29 | 54.60624 | -10.31765 | 36059 ft | 450 kts | 142° |
| 2026-05-01 08:30 | 54.55832 | -10.24844 | 36037 ft | 449 kts | 142° |
| 2026-05-01 08:30 | 54.51045 | -10.17953 | 36062 ft | 448 kts | 142° |
| 2026-05-01 08:31 | 54.46481 | -10.10753 | 36059 ft | 451 kts | 134° |
| 2026-05-01 08:31 | 54.42621 | -10.02223 | 36061 ft | 453 kts | 129° |
| 2026-05-01 08:32 | 54.38926 | -9.93444 | 36062 ft | 454 kts | 129° |
| 2026-05-01 08:32 | 54.35247 | -9.84651 | 36058 ft | 454 kts | 129° |
| 2026-05-01 08:33 | 54.31542 | -9.75890 | 36059 ft | 454 kts | 129° |
| 2026-05-01 08:33 | 54.27824 | -9.67169 | 36058 ft | 453 kts | 129° |
| 2026-05-01 08:34 | 54.24098 | -9.58469 | 36025 ft | 453 kts | 130° |
| 2026-05-01 08:34 | 54.20361 | -9.49774 | 36059 ft | 454 kts | 130° |
| 2026-05-01 08:35 | 54.16614 | -9.41084 | 36061 ft | 455 kts | 130° |
| 2026-05-01 08:35 | 54.12885 | -9.32461 | 36069 ft | 455 kts | 130° |
| 2026-05-01 08:36 | 54.09129 | -9.23806 | 36063 ft | 454 kts | 130° |
| 2026-05-01 08:36 | 54.05371 | -9.15178 | 36067 ft | 453 kts | 130° |
| 2026-05-01 08:37 | 54.02218 | -9.07964 | 36072 ft | 453 kts | 130° |
| 2026-05-01 08:37 | 53.98450 | -8.99369 | 36074 ft | 453 kts | 130° |
| 2026-05-01 08:38 | 53.94702 | -8.90849 | 36069 ft | 454 kts | 130° |
| 2026-05-01 08:38 | 53.91090 | -8.82034 | 36073 ft | 459 kts | 123° |
| 2026-05-01 08:39 | 53.88421 | -8.72150 | 36074 ft | 463 kts | 117° |
| 2026-05-01 08:39 | 53.86011 | -8.62020 | 36075 ft | 464 kts | 116° |
| 2026-05-01 08:40 | 53.82434 | -8.46798 | 36074 ft | 464 kts | 116° |
| 2026-05-01 08:40 | 53.80017 | -8.36683 | 36060 ft | 463 kts | 116° |
| 2026-05-01 08:41 | 53.77580 | -8.26577 | 36077 ft | 465 kts | 117° |
| 2026-05-01 08:41 | 53.75129 | -8.16468 | 36083 ft | 465 kts | 117° |
| 2026-05-01 08:42 | 53.72669 | -8.06363 | 36080 ft | 465 kts | 117° |
| 2026-05-01 08:42 | 53.70204 | -7.96280 | 36080 ft | 465 kts | 117° |
| 2026-05-01 08:43 | 53.67731 | -7.86211 | 36086 ft | 464 kts | 117° |
| 2026-05-01 08:43 | 53.65250 | -7.76159 | 36078 ft | 465 kts | 117° |
| 2026-05-01 08:44 | 53.62755 | -7.66095 | 36088 ft | 466 kts | 117° |
| 2026-05-01 08:44 | 53.60253 | -7.56044 | 36088 ft | 466 kts | 117° |
| 2026-05-01 08:45 | 53.57757 | -7.46064 | 36094 ft | 466 kts | 117° |
| 2026-05-01 08:45 | 53.55220 | -7.35970 | 36093 ft | 465 kts | 117° |
| 2026-05-01 08:46 | 53.52708 | -7.26017 | 36094 ft | 465 kts | 117° |
| 2026-05-01 08:46 | 53.50169 | -7.16003 | 36100 ft | 466 kts | 117° |
| 2026-05-01 08:47 | 53.47619 | -7.05993 | 36099 ft | 467 kts | 117° |
| 2026-05-01 08:47 | 53.45059 | -6.95984 | 36099 ft | 466 kts | 117° |
| 2026-05-01 08:48 | 53.42491 | -6.85990 | 36100 ft | 466 kts | 117° |
| 2026-05-01 08:48 | 53.39914 | -6.76009 | 36102 ft | 466 kts | 118° |
| 2026-05-01 08:49 | 53.37332 | -6.66049 | 36103 ft | 467 kts | 117° |
| 2026-05-01 08:49 | 53.34732 | -6.56069 | 36105 ft | 468 kts | 117° |
| 2026-05-01 08:50 | 53.32124 | -6.46096 | 36101 ft | 468 kts | 117° |
| 2026-05-01 08:50 | 53.29505 | -6.36128 | 36103 ft | 468 kts | 117° |
| 2026-05-01 08:51 | 53.26879 | -6.26174 | 36103 ft | 468 kts | 118° |
| 2026-05-01 08:51 | 53.24244 | -6.16235 | 36106 ft | 468 kts | 118° |
| 2026-05-01 08:52 | 53.21599 | -6.06298 | 36107 ft | 469 kts | 117° |
| 2026-05-01 08:52 | 53.18940 | -5.96355 | 36115 ft | 470 kts | 117° |
| 2026-05-01 08:53 | 53.16272 | -5.86418 | 36125 ft | 470 kts | 117° |
| 2026-05-01 08:53 | 53.13596 | -5.76494 | 36126 ft | 470 kts | 118° |
| 2026-05-01 08:54 | 53.10964 | -5.66775 | 36135 ft | 469 kts | 118° |
| 2026-05-01 08:54 | 53.08278 | -5.56896 | 36135 ft | 468 kts | 118° |
| 2026-05-01 08:55 | 53.05307 | -5.47319 | 36143 ft | 464 kts | 125° |
| 2026-05-01 08:55 | 53.01877 | -5.38239 | 36145 ft | 464 kts | 126° |
| 2026-05-01 08:56 | 52.98370 | -5.29264 | 36141 ft | 463 kts | 127° |
| 2026-05-01 08:56 | 52.94849 | -5.20302 | 36143 ft | 463 kts | 127° |
| 2026-05-01 08:57 | 52.91332 | -5.11347 | 36147 ft | 463 kts | 127° |
| 2026-05-01 08:57 | 52.87816 | -5.02410 | 36147 ft | 464 kts | 126° |
| 2026-05-01 08:58 | 52.84281 | -4.93451 | 36156 ft | 465 kts | 126° |
| 2026-05-01 08:58 | 52.80758 | -4.84557 | 36157 ft | 466 kts | 126° |
| 2026-05-01 08:59 | 52.77196 | -4.75592 | 36157 ft | 465 kts | 126° |
| 2026-05-01 08:59 | 52.73635 | -4.66663 | 36157 ft | 465 kts | 126° |
| 2026-05-01 09:00 | 52.70069 | -4.57754 | 36157 ft | 465 kts | 127° |
| 2026-05-01 09:00 | 52.66495 | -4.48859 | 36148 ft | 465 kts | 126° |
| 2026-05-01 09:01 | 52.62903 | -4.39949 | 36149 ft | 468 kts | 126° |
| 2026-05-01 09:01 | 52.59295 | -4.31028 | 36148 ft | 468 kts | 126° |
| 2026-05-01 09:02 | 52.55694 | -4.22156 | 36154 ft | 468 kts | 126° |
| 2026-05-01 09:02 | 52.52070 | -4.13259 | 36149 ft | 468 kts | 127° |
| 2026-05-01 09:03 | 52.48443 | -4.04386 | 36151 ft | 468 kts | 127° |
| 2026-05-01 09:03 | 52.44806 | -3.95520 | 36149 ft | 469 kts | 126° |
| 2026-05-01 09:04 | 52.41133 | -3.86602 | 36277 ft | 473 kts | 126° |
| 2026-05-01 09:04 | 52.39294 | -3.82146 | 36432 ft | 472 kts | 126° |
| 2026-05-01 09:04 | 52.37452 | -3.77687 | 36552 ft | 472 kts | 126° |
| 2026-05-01 09:05 | 52.35611 | -3.73242 | 36694 ft | 472 kts | 126° |
| 2026-05-01 09:05 | 52.33767 | -3.68797 | 36818 ft | 472 kts | 127° |
| 2026-05-01 09:05 | 52.31923 | -3.64359 | 36942 ft | 472 kts | 127° |
| 2026-05-01 09:05 | 52.30079 | -3.59926 | 37058 ft | 472 kts | 127° |
| 2026-05-01 09:06 | 52.28230 | -3.55494 | 37185 ft | 472 kts | 127° |
| 2026-05-01 09:06 | 52.26384 | -3.51074 | 37284 ft | 472 kts | 127° |
| 2026-05-01 09:06 | 52.22681 | -3.42236 | 37459 ft | 473 kts | 126° |
| 2026-05-01 09:07 | 52.18947 | -3.33354 | 37550 ft | 475 kts | 126° |
| 2026-05-01 09:07 | 52.15206 | -3.24482 | 37713 ft | 475 kts | 126° |
| 2026-05-01 09:08 | 52.13334 | -3.20053 | 37814 ft | 475 kts | 126° |
| 2026-05-01 09:08 | 52.11461 | -3.15631 | 37908 ft | 474 kts | 127° |
| 2026-05-01 09:08 | 52.07711 | -3.06799 | 38077 ft | 474 kts | 127° |
| 2026-05-01 09:09 | 52.03956 | -2.97987 | 38160 ft | 475 kts | 127° |
| 2026-05-01 09:09 | 52.00196 | -2.89193 | 38172 ft | 473 kts | 127° |
| 2026-05-01 09:10 | 51.96437 | -2.80431 | 38159 ft | 473 kts | 127° |
| 2026-05-01 09:10 | 51.92675 | -2.71692 | 38159 ft | 473 kts | 127° |
| 2026-05-01 09:11 | 51.88891 | -2.62932 | 38158 ft | 473 kts | 127° |
| 2026-05-01 09:11 | 51.85111 | -2.54213 | 38158 ft | 473 kts | 127° |
| 2026-05-01 09:12 | 51.81327 | -2.45512 | 38158 ft | 473 kts | 127° |
| 2026-05-01 09:12 | 51.77534 | -2.36820 | 38159 ft | 474 kts | 127° |
| 2026-05-01 09:13 | 51.73730 | -2.28132 | 38159 ft | 474 kts | 127° |
| 2026-05-01 09:13 | 51.69912 | -2.19444 | 38161 ft | 475 kts | 127° |
| 2026-05-01 09:14 | 51.66090 | -2.10771 | 38162 ft | 474 kts | 127° |
| 2026-05-01 09:14 | 51.62262 | -2.02116 | 38164 ft | 474 kts | 127° |
| 2026-05-01 09:15 | 51.58430 | -1.93482 | 38167 ft | 474 kts | 127° |
| 2026-05-01 09:15 | 51.54589 | -1.84855 | 38166 ft | 474 kts | 127° |
| 2026-05-01 09:16 | 51.50744 | -1.76250 | 38164 ft | 474 kts | 127° |
| 2026-05-01 09:17 | 51.44921 | -1.63442 | 38165 ft | 473 kts | 130° |
| 2026-05-01 09:17 | 51.38542 | -1.51502 | 38164 ft | 472 kts | 133° |
| 2026-05-01 09:18 | 51.32103 | -1.39556 | 38153 ft | 472 kts | 132° |
| 2026-05-01 09:19 | 51.25743 | -1.27576 | 38180 ft | 470 kts | 132° |
| 2026-05-01 09:20 | 51.19393 | -1.15649 | 38182 ft | 470 kts | 132° |
| 2026-05-01 09:21 | 51.10899 | -0.99795 | 38183 ft | 470 kts | 132° |
| 2026-05-01 09:21 | 51.04521 | -0.87956 | 38186 ft | 469 kts | 132° |
| 2026-05-01 09:22 | 50.96745 | -0.73593 | 38200 ft | 468 kts | 132° |
| 2026-05-01 09:23 | 50.90362 | -0.61866 | 38205 ft | 468 kts | 133° |
| 2026-05-01 09:24 | 50.83963 | -0.50163 | 38210 ft | 469 kts | 133° |
| 2026-05-01 09:25 | 50.75392 | -0.34570 | 38210 ft | 470 kts | 133° |
| 2026-05-01 09:26 | 50.68546 | -0.23591 | 38214 ft | 467 kts | 145° |
| 2026-05-01 09:26 | 50.60523 | -0.14902 | 38211 ft | 467 kts | 148° |
| 2026-05-01 09:27 | 50.52361 | -0.06479 | 38208 ft | 468 kts | 148° |
| 2026-05-01 09:28 | 50.46923 | -0.00847 | 38202 ft | 468 kts | 148° |
| 2026-05-01 09:28 | 50.41496 | 0.04781 | 38212 ft | 467 kts | 147° |
| 2026-05-01 09:29 | 50.33378 | 0.13181 | 38214 ft | 466 kts | 148° |
| 2026-05-01 09:30 | 50.25263 | 0.21530 | 38226 ft | 465 kts | 148° |
| 2026-05-01 09:30 | 50.17141 | 0.29859 | 38233 ft | 466 kts | 147° |
| 2026-05-01 09:31 | 50.11722 | 0.35429 | 38212 ft | 467 kts | 147° |
| 2026-05-01 09:32 | 50.03574 | 0.43780 | 38219 ft | 468 kts | 147° |
| 2026-05-01 09:32 | 49.95420 | 0.52095 | 38222 ft | 467 kts | 147° |
| 2026-05-01 09:33 | 49.89988 | 0.57615 | 38220 ft | 467 kts | 147° |
| 2026-05-01 09:33 | 49.84813 | 0.63701 | 38219 ft | 468 kts | 136° |
| 2026-05-01 09:34 | 49.82528 | 0.67294 | 38226 ft | 469 kts | 134° |
| 2026-05-01 09:34 | 49.75904 | 0.78457 | 38228 ft | 469 kts | 133° |
| 2026-05-01 09:35 | 49.69323 | 0.89663 | 38227 ft | 470 kts | 133° |
| 2026-05-01 09:36 | 49.64909 | 0.97098 | 38225 ft | 469 kts | 133° |
| 2026-05-01 09:36 | 49.60497 | 1.04496 | 38231 ft | 469 kts | 134° |
| 2026-05-01 09:37 | 49.56077 | 1.11883 | 38236 ft | 469 kts | 134° |
| 2026-05-01 09:37 | 49.49440 | 1.22939 | 38239 ft | 469 kts | 134° |
| 2026-05-01 09:38 | 49.42791 | 1.33972 | 38229 ft | 469 kts | 134° |
| 2026-05-01 09:39 | 49.36158 | 1.44928 | 38234 ft | 465 kts | 134° |
| 2026-05-01 09:39 | 49.31781 | 1.52133 | 38234 ft | 465 kts | 134° |
| 2026-05-01 09:40 | 49.25168 | 1.62979 | 38230 ft | 464 kts | 134° |
| 2026-05-01 09:41 | 49.20757 | 1.70188 | 38233 ft | 464 kts | 134° |
| 2026-05-01 09:41 | 49.14128 | 1.80986 | 38232 ft | 464 kts | 134° |
| 2026-05-01 09:42 | 49.09699 | 1.88176 | 38240 ft | 463 kts | 134° |
| 2026-05-01 09:43 | 49.00859 | 2.02463 | 38236 ft | 464 kts | 134° |
| 2026-05-01 09:43 | 48.96426 | 2.09600 | 38233 ft | 464 kts | 134° |
| 2026-05-01 09:44 | 48.89784 | 2.20255 | 38234 ft | 464 kts | 134° |
| 2026-05-01 09:45 | 48.85342 | 2.27356 | 38237 ft | 464 kts | 134° |
| 2026-05-01 09:45 | 48.78660 | 2.38001 | 38238 ft | 464 kts | 134° |
| 2026-05-01 09:46 | 48.74203 | 2.45077 | 38239 ft | 464 kts | 134° |
| 2026-05-01 09:46 | 48.69723 | 2.52170 | 38238 ft | 464 kts | 134° |
| 2026-05-01 09:47 | 48.65255 | 2.59225 | 38238 ft | 464 kts | 134° |
| 2026-05-01 09:47 | 48.60785 | 2.66266 | 38238 ft | 464 kts | 134° |
| 2026-05-01 09:48 | 48.57005 | 2.74078 | 38240 ft | 466 kts | 118° |
| 2026-05-01 09:48 | 48.55019 | 2.83406 | 38237 ft | 469 kts | 98° |
| 2026-05-01 09:49 | 48.54509 | 2.93231 | 38238 ft | 471 kts | 94° |
| 2026-05-01 09:49 | 48.54240 | 3.03055 | 38226 ft | 471 kts | 94° |
| 2026-05-01 09:50 | 48.53952 | 3.12936 | 38245 ft | 471 kts | 94° |
| 2026-05-01 09:50 | 48.53616 | 3.22808 | 38243 ft | 471 kts | 95° |
| 2026-05-01 09:51 | 48.53256 | 3.32685 | 38243 ft | 471 kts | 95° |
| 2026-05-01 09:51 | 48.52885 | 3.42566 | 38243 ft | 472 kts | 95° |
| 2026-05-01 09:52 | 48.52508 | 3.52463 | 38241 ft | 471 kts | 95° |
| 2026-05-01 09:52 | 48.52123 | 3.62325 | 38243 ft | 470 kts | 95° |
| 2026-05-01 09:53 | 48.51731 | 3.72172 | 38249 ft | 470 kts | 95° |
| 2026-05-01 09:53 | 48.51331 | 3.82016 | 38258 ft | 470 kts | 95° |
| 2026-05-01 09:54 | 48.50923 | 3.91861 | 38259 ft | 470 kts | 95° |
| 2026-05-01 09:54 | 48.50780 | 3.95118 | 38257 ft | 470 kts | 96° |
| 2026-05-01 09:55 | 48.49234 | 4.05368 | 38259 ft | 466 kts | 114° |
| 2026-05-01 09:56 | 48.46459 | 4.14162 | 38260 ft | 466 kts | 118° |
| 2026-05-01 09:56 | 48.43450 | 4.22795 | 38259 ft | 466 kts | 119° |
| 2026-05-01 09:57 | 48.40434 | 4.31348 | 38250 ft | 461 kts | 118° |
| 2026-05-01 09:57 | 48.37481 | 4.39778 | 38258 ft | 448 kts | 118° |
| 2026-05-01 09:58 | 48.34590 | 4.48052 | 38252 ft | 447 kts | 118° |
| 2026-05-01 09:58 | 48.31690 | 4.56331 | 38245 ft | 448 kts | 118° |
| 2026-05-01 09:59 | 48.28802 | 4.64553 | 38245 ft | 448 kts | 118° |
| 2026-05-01 09:59 | 48.25887 | 4.72821 | 38240 ft | 448 kts | 118° |
| 2026-05-01 10:00 | 48.22967 | 4.81077 | 38254 ft | 448 kts | 118° |
| 2026-05-01 10:00 | 48.20041 | 4.89325 | 38252 ft | 448 kts | 118° |
| 2026-05-01 10:01 | 48.17109 | 4.97564 | 38252 ft | 448 kts | 118° |
| 2026-05-01 10:01 | 48.14172 | 5.05791 | 38252 ft | 448 kts | 118° |
| 2026-05-01 10:02 | 48.11234 | 5.14017 | 38253 ft | 448 kts | 117° |
| 2026-05-01 10:02 | 48.09111 | 5.22779 | 38258 ft | 449 kts | 108° |
| 2026-05-01 10:03 | 48.07357 | 5.31786 | 38262 ft | 450 kts | 106° |
| 2026-05-01 10:03 | 48.05661 | 5.40806 | 38262 ft | 450 kts | 106° |
| 2026-05-01 10:04 | 48.03951 | 5.49794 | 38268 ft | 450 kts | 107° |
| 2026-05-01 10:04 | 48.02217 | 5.58786 | 38269 ft | 451 kts | 106° |
| 2026-05-01 10:05 | 48.00468 | 5.67778 | 38274 ft | 451 kts | 106° |
| 2026-05-01 10:05 | 47.98710 | 5.76774 | 38271 ft | 451 kts | 107° |
| 2026-05-01 10:06 | 47.97245 | 5.84246 | 38272 ft | 451 kts | 107° |
| 2026-05-01 10:06 | 47.96366 | 5.88712 | 37933 ft | 448 kts | 107° |
| 2026-05-01 10:06 | 47.95491 | 5.93151 | 37474 ft | 446 kts | 107° |
| 2026-05-01 10:07 | 47.94611 | 5.97601 | 36807 ft | 449 kts | 107° |
| 2026-05-01 10:07 | 47.93723 | 6.02086 | 36144 ft | 452 kts | 107° |
| 2026-05-01 10:07 | 47.92827 | 6.06600 | 35461 ft | 456 kts | 107° |
| 2026-05-01 10:07 | 47.91923 | 6.11140 | 34780 ft | 459 kts | 107° |
| 2026-05-01 10:08 | 47.90097 | 6.20282 | 33294 ft | 462 kts | 107° |
| 2026-05-01 10:08 | 47.89173 | 6.24896 | 32478 ft | 465 kts | 107° |
| 2026-05-01 10:08 | 47.88243 | 6.29523 | 31678 ft | 467 kts | 107° |
| 2026-05-01 10:09 | 47.87308 | 6.34165 | 30870 ft | 469 kts | 107° |
| 2026-05-01 10:09 | 47.86367 | 6.38830 | 29980 ft | 472 kts | 106° |
| 2026-05-01 10:09 | 47.85428 | 6.43472 | 29160 ft | 472 kts | 106° |
| 2026-05-01 10:09 | 47.84484 | 6.48128 | 28533 ft | 468 kts | 106° |
| 2026-05-01 10:10 | 47.83546 | 6.52739 | 27953 ft | 463 kts | 106° |
| 2026-05-01 10:10 | 47.82615 | 6.57313 | 27344 ft | 459 kts | 106° |
| 2026-05-01 10:10 | 47.80773 | 6.66320 | 26184 ft | 451 kts | 107° |
| 2026-05-01 10:11 | 47.79858 | 6.70784 | 25592 ft | 448 kts | 107° |
| 2026-05-01 10:11 | 47.78951 | 6.75196 | 25004 ft | 444 kts | 107° |
| 2026-05-01 10:11 | 47.78051 | 6.79562 | 24431 ft | 441 kts | 106° |
| 2026-05-01 10:11 | 47.77152 | 6.83916 | 23845 ft | 438 kts | 106° |
| 2026-05-01 10:12 | 47.76258 | 6.88236 | 23196 ft | 435 kts | 107° |
| 2026-05-01 10:12 | 47.75372 | 6.92506 | 22607 ft | 430 kts | 107° |
| 2026-05-01 10:12 | 47.73622 | 7.00923 | 21447 ft | 423 kts | 107° |
| 2026-05-01 10:13 | 47.72755 | 7.05078 | 20870 ft | 419 kts | 107° |
| 2026-05-01 10:13 | 47.71895 | 7.09192 | 20297 ft | 416 kts | 107° |
| 2026-05-01 10:13 | 47.71039 | 7.13280 | 19726 ft | 413 kts | 107° |
| 2026-05-01 10:14 | 47.69340 | 7.21365 | 18640 ft | 407 kts | 107° |
| 2026-05-01 10:14 | 47.68498 | 7.25358 | 18041 ft | 404 kts | 107° |
| 2026-05-01 10:14 | 47.67661 | 7.29317 | 17488 ft | 400 kts | 107° |
| 2026-05-01 10:14 | 47.66843 | 7.33184 | 16945 ft | 396 kts | 107° |
| 2026-05-01 10:15 | 47.66021 | 7.37064 | 16407 ft | 393 kts | 107° |
| 2026-05-01 10:15 | 47.65199 | 7.40933 | 15859 ft | 390 kts | 107° |
| 2026-05-01 10:15 | 47.64386 | 7.44760 | 15323 ft | 387 kts | 107° |
| 2026-05-01 10:15 | 47.63586 | 7.48517 | 14778 ft | 384 kts | 107° |
| 2026-05-01 10:16 | 47.62775 | 7.52280 | 14272 ft | 382 kts | 108° |
| 2026-05-01 10:16 | 47.61910 | 7.55990 | 13709 ft | 379 kts | 109° |
| 2026-05-01 10:16 | 47.60176 | 7.63297 | 12644 ft | 372 kts | 109° |
| 2026-05-01 10:17 | 47.59331 | 7.66874 | 12375 ft | 362 kts | 109° |
| 2026-05-01 10:17 | 47.57741 | 7.73616 | 12328 ft | 332 kts | 109° |
| 2026-05-01 10:17 | 47.56994 | 7.76807 | 12164 ft | 325 kts | 109° |
| 2026-05-01 10:18 | 47.55504 | 7.83119 | 11249 ft | 325 kts | 109° |
| 2026-05-01 10:18 | 47.54757 | 7.86273 | 10863 ft | 323 kts | 109° |
| 2026-05-01 10:18 | 47.54017 | 7.89404 | 10479 ft | 321 kts | 109° |
| 2026-05-01 10:19 | 47.53285 | 7.92489 | 10083 ft | 314 kts | 109° |
| 2026-05-01 10:19 | 47.52576 | 7.95480 | 9852 ft | 301 kts | 109° |
| 2026-05-01 10:19 | 47.51894 | 7.98352 | 9626 ft | 291 kts | 109° |
| 2026-05-01 10:20 | 47.50895 | 8.03978 | 8926 ft | 281 kts | 89° |
| 2026-05-01 10:20 | 47.51315 | 8.06782 | 8483 ft | 281 kts | 69° |
| 2026-05-01 10:20 | 47.52094 | 8.09436 | 7999 ft | 282 kts | 66° |
| 2026-05-01 10:20 | 47.52911 | 8.12051 | 7599 ft | 279 kts | 67° |
| 2026-05-01 10:21 | 47.53719 | 8.14655 | 7186 ft | 278 kts | 66° |
| 2026-05-01 10:21 | 47.55316 | 8.19873 | 6364 ft | 279 kts | 67° |
| 2026-05-01 10:21 | 47.56104 | 8.22474 | 6035 ft | 274 kts | 66° |
| 2026-05-01 10:22 | 47.57599 | 8.27426 | 5821 ft | 253 kts | 67° |
| 2026-05-01 10:22 | 47.58948 | 8.31900 | 5370 ft | 225 kts | 67° |
| 2026-05-01 10:23 | 47.59568 | 8.33962 | 5157 ft | 211 kts | 67° |
| 2026-05-01 10:23 | 47.59516 | 8.37315 | 4850 ft | 180 kts | 118° |
| 2026-05-01 10:24 | 47.58515 | 8.39471 | 4434 ft | 171 kts | 138° |
| 2026-05-01 10:24 | 47.56781 | 8.41820 | 3996 ft | 164 kts | 137° |
| 2026-05-01 10:25 | 47.55114 | 8.44146 | 3996 ft | 165 kts | 137° |
| 2026-05-01 10:25 | 47.53417 | 8.46481 | 3258 ft | 171 kts | 136° |
| 2026-05-01 10:26 | 47.52521 | 8.47708 | 2726 ft | 179 kts | 136° |
| 2026-05-01 10:26 | 47.51633 | 8.48922 | 2394 ft | 165 kts | 135° |
| 2026-05-01 10:26 | 47.50106 | 8.51016 | 1979 ft | 141 kts | 135° |
| 2026-05-01 10:27 | 47.48653 | 8.53003 | 1549 ft | 143 kts | 134° |
| 2026-05-01 10:27 | 47.47374 | 8.54761 | 1409 ft | 85 kts | 137° |
| 2026-05-01 10:28 | 47.47066 | 8.55172 | 1404 ft | 43 kts | 137° |
| 2026-05-01 10:28 | 47.46773 | 8.55559 | 1410 ft | 8 kts | 145° |
| 2026-05-01 10:28 | 47.46679 | 8.55636 | 1407 ft | 22 kts | 156° |
| 2026-05-01 10:29 | 47.46365 | 8.55787 | 1410 ft | 18 kts | 144° |
| 2026-05-01 10:29 | 47.46277 | 8.55886 | 1409 ft | 13 kts | 167° |
| 2026-05-01 10:30 | 47.46238 | 8.55750 | 1409 ft | 12 kts | 274° |
| 2026-05-01 10:30 | 47.46243 | 8.55659 | 1402 ft | 3 kts | 275° |
| 2026-05-01 10:31 | 47.46249 | 8.55557 | 1407 ft | 0 kts | 275° |
| 2026-05-01 10:32 | 47.46228 | 8.55506 | 1411 ft | 8 kts | 223° |
| 2026-05-01 10:32 | 47.46218 | 8.55496 | 1408 ft | 3 kts | 207° |
| 2026-05-01 10:32 | 47.46190 | 8.55494 | 1407 ft | 2 kts | 183° |
| 2026-05-01 10:33 | 47.46177 | 8.55493 | 1407 ft | 0 kts | 184° |
| 2026-05-01 10:33 | 47.46177 | 8.55492 | 1407 ft | 0 kts | 184° |